createdAt,value
2023-09-26T00:00:45.379Z,5.60
2023-09-26T00:03:32.936Z,5.82
2023-09-26T00:06:00.753Z,5.30
2023-09-26T00:08:28.445Z,5.30
2023-09-26T00:10:56.211Z,5.43
2023-09-26T00:13:23.708Z,5.50
2023-09-26T00:15:51.603Z,5.65
2023-09-26T00:18:19.135Z,5.70
2023-09-26T00:20:46.817Z,4.93
2023-09-26T00:23:14.284Z,5.13
2023-09-26T00:25:42.065Z,5.47
2023-09-26T00:28:09.633Z,5.40
2023-09-26T00:30:38.278Z,4.93
2023-09-26T00:33:05.912Z,4.93
2023-09-26T00:35:33.803Z,5.05
2023-09-26T00:38:01.608Z,5.18
2023-09-26T00:40:29.792Z,5.38
2023-09-26T00:43:01.119Z,5.47
2023-09-26T00:45:29.043Z,5.13
2023-09-26T00:47:56.581Z,5.10
2023-09-26T00:50:24.576Z,5.20
2023-09-26T00:52:52.720Z,5.20
2023-09-26T00:55:23.423Z,5.57
2023-09-26T00:57:51.306Z,5.72
2023-09-26T01:00:21.138Z,5.80
2023-09-26T01:02:49.719Z,6.28
2023-09-26T01:05:17.869Z,5.78
2023-09-26T01:07:45.678Z,6.03
2023-09-26T01:10:13.761Z,6.40
2023-09-26T01:12:41.632Z,5.93
2023-09-26T01:15:11.504Z,5.60
2023-09-26T01:17:39.357Z,5.68
2023-09-26T01:20:15.855Z,5.75
2023-09-26T01:22:47.174Z,5.25
2023-09-26T01:25:18.870Z,6.10
2023-09-26T01:27:46.834Z,5.45
2023-09-26T01:30:15.709Z,5.50
2023-09-26T01:32:43.250Z,5.68
2023-09-26T01:35:12.186Z,5.65
2023-09-26T01:37:39.701Z,5.85
2023-09-26T01:40:10.487Z,5.97
2023-09-26T01:42:38.364Z,5.78
2023-09-26T01:45:06.389Z,5.32
2023-09-26T01:48:06.465Z,6.50
2023-09-26T01:50:36.327Z,5.70
2023-09-26T01:53:05.353Z,5.82
2023-09-26T01:55:33.171Z,5.80
2023-09-26T01:58:00.689Z,6.43
2023-09-26T02:00:30.567Z,6.22
2023-09-26T02:03:00.936Z,5.90
2023-09-26T02:05:29.106Z,6.63
2023-09-26T02:07:56.753Z,6.07
2023-09-26T02:10:24.899Z,6.20
2023-09-26T02:12:53.161Z,6.10
2023-09-26T02:15:21.136Z,6.25
2023-09-26T02:17:49.033Z,6.05
2023-09-26T02:20:17.899Z,6.00
2023-09-26T02:22:54.346Z,6.03
2023-09-26T02:25:22.586Z,6.32
2023-09-26T02:27:50.710Z,6.20
2023-09-26T02:30:20.287Z,6.20
2023-09-26T02:32:47.920Z,6.05
2023-09-26T02:35:17.266Z,6.47
2023-09-26T02:37:45.302Z,6.25
2023-09-26T02:40:13.721Z,6.50
2023-09-26T02:42:42.237Z,6.65
2023-09-26T02:45:10.180Z,5.82
2023-09-26T02:47:37.875Z,6.20
2023-09-26T02:50:06.074Z,6.25
2023-09-26T02:52:33.631Z,6.78
2023-09-26T02:55:03.327Z,6.35
2023-09-26T02:57:31.055Z,6.32
2023-09-26T02:59:58.989Z,6.68
2023-09-26T03:02:26.646Z,6.30
2023-09-26T03:04:54.520Z,6.35
2023-09-26T03:07:22.052Z,6.30
2023-09-26T03:09:49.820Z,7.18
2023-09-26T03:12:17.351Z,6.68
2023-09-26T03:14:45.057Z,6.55
2023-09-26T03:17:12.633Z,6.82
2023-09-26T03:19:41.401Z,6.78
2023-09-26T03:22:09.992Z,6.45
2023-09-26T03:24:37.830Z,8.10
2023-09-26T03:27:05.329Z,7.93
2023-09-26T03:29:34.127Z,8.40
2023-09-26T03:32:01.712Z,8.60
2023-09-26T03:34:29.665Z,8.20
2023-09-26T03:36:57.331Z,8.30
2023-09-26T03:39:25.259Z,7.95
2023-09-26T03:41:52.792Z,8.18
2023-09-26T03:44:20.511Z,8.10
2023-09-26T03:46:48.215Z,7.32
2023-09-26T03:49:16.063Z,7.60
2023-09-26T03:51:43.956Z,7.57
2023-09-26T03:54:11.868Z,7.55
2023-09-26T03:56:39.354Z,7.68
2023-09-26T03:59:08.934Z,7.60
2023-09-26T04:01:36.607Z,7.05
2023-09-26T04:04:04.505Z,7.43
2023-09-26T04:06:35.237Z,7.22
2023-09-26T04:09:02.999Z,7.50
2023-09-26T04:11:30.487Z,7.63
2023-09-26T04:13:58.460Z,7.82
2023-09-26T04:16:25.972Z,8.13
2023-09-26T04:18:53.869Z,8.05
2023-09-26T04:21:21.364Z,8.07
2023-09-26T04:23:49.372Z,8.27
2023-09-26T04:26:18.946Z,9.02
2023-09-26T04:28:47.444Z,13.27
2023-09-26T04:31:18.843Z,15.25
2023-09-26T04:33:50.523Z,15.20
2023-09-26T04:36:18.377Z,17.75
2023-09-26T04:38:47.938Z,17.10
2023-09-26T04:41:15.853Z,15.27
2023-09-26T04:43:43.631Z,14.00
2023-09-26T04:46:13.060Z,13.88
2023-09-26T04:48:41.652Z,11.18
2023-09-26T04:51:09.923Z,9.98
2023-09-26T04:53:37.762Z,8.52
2023-09-26T04:56:05.576Z,8.70
2023-09-26T04:58:33.819Z,8.00
2023-09-26T05:01:02.260Z,10.13
2023-09-26T05:03:30.438Z,10.18
2023-09-26T05:05:57.961Z,10.13
2023-09-26T05:08:25.779Z,10.32
2023-09-26T05:10:53.805Z,9.63
2023-09-26T05:13:21.845Z,8.98
2023-09-26T05:15:49.454Z,7.40
2023-09-26T05:18:17.339Z,7.00
2023-09-26T05:20:44.931Z,6.40
2023-09-26T05:23:12.421Z,6.13
2023-09-26T05:25:40.162Z,6.82
2023-09-26T05:28:07.764Z,6.28
2023-09-26T05:30:37.267Z,5.85
2023-09-26T05:33:04.896Z,6.05
2023-09-26T05:35:32.650Z,5.63
2023-09-26T05:38:00.260Z,5.30
2023-09-26T05:40:28.211Z,5.65
2023-09-26T05:42:55.852Z,5.45
2023-09-26T05:45:23.589Z,5.32
2023-09-26T05:47:51.367Z,5.53
2023-09-26T05:50:19.198Z,5.93
2023-09-26T05:52:46.780Z,5.47
2023-09-26T05:55:14.929Z,5.53
2023-09-26T05:57:42.713Z,5.18
2023-09-26T06:00:14.476Z,5.72
2023-09-26T06:02:43.120Z,5.80
2023-09-26T06:05:13.069Z,5.30
2023-09-26T06:07:42.712Z,5.65
2023-09-26T06:10:14.401Z,5.53
2023-09-26T06:12:42.883Z,5.68
2023-09-26T06:15:10.854Z,5.70
2023-09-26T06:17:41.173Z,5.65
2023-09-26T06:20:10.004Z,5.95
2023-09-26T06:22:38.156Z,5.57
2023-09-26T06:25:07.165Z,5.13
2023-09-26T06:27:38.989Z,5.57
2023-09-26T06:30:06.918Z,5.18
2023-09-26T06:32:38.595Z,5.32
2023-09-26T06:35:07.212Z,5.90
2023-09-26T06:37:35.252Z,5.30
2023-09-26T06:40:05.366Z,5.78
2023-09-26T06:42:33.756Z,7.88
2023-09-26T06:45:01.717Z,5.93
2023-09-26T06:47:29.676Z,5.85
2023-09-26T06:49:57.438Z,5.25
2023-09-26T06:52:25.998Z,5.40
2023-09-26T06:54:53.870Z,5.57
2023-09-26T06:57:21.907Z,4.85
2023-09-26T06:59:51.069Z,5.13
2023-09-26T07:02:19.178Z,4.88
2023-09-26T07:04:47.609Z,5.22
2023-09-26T07:07:15.651Z,5.68
2023-09-26T07:09:43.304Z,5.60
2023-09-26T07:12:11.117Z,5.35
2023-09-26T07:14:38.560Z,5.32
2023-09-26T07:17:06.381Z,5.38
2023-09-26T07:19:34.045Z,5.70
2023-09-26T07:22:02.201Z,5.95
2023-09-26T07:24:42.905Z,6.03
2023-09-26T07:27:17.227Z,5.80
2023-09-26T07:29:48.127Z,6.28
2023-09-26T07:32:16.761Z,5.65
2023-09-26T07:34:44.556Z,6.18
2023-09-26T07:37:13.280Z,5.75
2023-09-26T07:39:45.515Z,6.45
2023-09-26T07:42:13.578Z,6.30
2023-09-26T07:44:41.081Z,6.78
2023-09-26T07:47:09.612Z,6.40
2023-09-26T07:49:38.099Z,6.20
2023-09-26T07:52:06.078Z,6.55
2023-09-26T07:54:33.706Z,5.97
2023-09-26T07:57:01.526Z,7.28
2023-09-26T07:59:29.089Z,6.85
2023-09-26T08:01:57.736Z,7.15
2023-09-26T08:04:25.319Z,7.07
2023-09-26T08:06:53.337Z,6.90
2023-09-26T08:09:20.950Z,7.30
2023-09-26T08:11:48.748Z,7.45
2023-09-26T08:14:16.318Z,6.63
2023-09-26T08:16:44.767Z,6.60
2023-09-26T08:19:12.372Z,7.13
2023-09-26T08:21:41.178Z,7.15
2023-09-26T08:24:08.861Z,7.20
2023-09-26T08:26:36.642Z,7.60
2023-09-26T08:29:06.957Z,8.00
2023-09-26T08:31:37.089Z,8.50
2023-09-26T08:34:04.777Z,8.65
2023-09-26T08:36:33.464Z,9.13
2023-09-26T08:39:01.032Z,9.07
2023-09-26T08:41:29.181Z,9.43
2023-09-26T08:43:56.785Z,10.55
2023-09-26T08:46:24.590Z,10.35
2023-09-26T08:48:53.548Z,10.73
2023-09-26T08:51:21.339Z,9.48
2023-09-26T08:53:50.422Z,9.40
2023-09-26T08:56:18.589Z,9.88
2023-09-26T08:58:48.556Z,9.50
2023-09-26T09:01:16.927Z,10.10
2023-09-26T09:03:44.661Z,10.35
2023-09-26T09:06:12.667Z,12.05
2023-09-26T09:08:40.204Z,13.52
2023-09-26T09:11:07.996Z,13.32
2023-09-26T09:13:36.729Z,12.45
2023-09-26T09:16:09.215Z,12.88
2023-09-26T09:18:37.291Z,13.48
2023-09-26T09:21:35.575Z,14.13
2023-09-26T09:24:04.395Z,14.40
2023-09-26T09:26:33.794Z,14.25
2023-09-26T09:29:18.034Z,14.07
2023-09-26T09:31:46.088Z,14.50
2023-09-26T09:34:13.709Z,13.90
2023-09-26T09:36:41.670Z,14.00
2023-09-26T09:39:12.250Z,14.85
2023-09-26T09:41:40.378Z,13.90
2023-09-26T09:44:08.131Z,13.00
2023-09-26T09:46:37.101Z,14.30
2023-09-26T09:49:05.336Z,14.13
2023-09-26T09:51:33.344Z,13.43
2023-09-26T09:54:01.840Z,12.73
2023-09-26T09:56:35.711Z,13.57
2023-09-26T09:59:07.160Z,13.30
2023-09-26T10:01:36.499Z,13.40
2023-09-26T10:04:04.530Z,13.05
2023-09-26T10:06:32.727Z,13.23
2023-09-26T10:09:01.913Z,13.63
2023-09-26T10:11:30.117Z,12.30
2023-09-26T10:13:59.716Z,12.52
2023-09-26T10:16:27.795Z,12.85
2023-09-26T10:18:56.049Z,12.65
2023-09-26T10:21:31.704Z,12.82
2023-09-26T10:24:13.393Z,12.75
2023-09-26T10:26:51.162Z,12.40
2023-09-26T10:29:21.770Z,13.05
2023-09-26T10:31:55.367Z,12.52
2023-09-26T10:34:42.433Z,13.02
2023-09-26T10:37:35.044Z,13.15
2023-09-26T10:40:02.928Z,13.23
2023-09-26T10:45:18.766Z,12.40
2023-09-26T10:47:57.882Z,12.35
2023-09-26T10:50:34.567Z,12.15
2023-09-26T10:53:02.730Z,12.30
2023-09-26T10:55:30.378Z,12.85
2023-09-26T10:57:58.292Z,13.07
2023-09-26T11:00:25.832Z,13.45
2023-09-26T11:05:41.628Z,12.95
2023-09-26T11:10:58.377Z,11.35
2023-09-26T11:13:26.725Z,12.13
2023-09-26T11:15:57.049Z,12.70
2023-09-26T11:18:25.087Z,11.90
2023-09-26T11:21:02.488Z,12.98
2023-09-26T11:23:38.028Z,11.82
2023-09-26T11:26:07.113Z,11.05
2023-09-26T11:28:38.065Z,11.88
2023-09-26T11:31:05.629Z,12.27
2023-09-26T11:33:35.957Z,12.02
2023-09-26T11:36:04.732Z,12.27
2023-09-26T11:38:33.203Z,11.95
2023-09-26T11:41:00.956Z,12.07
2023-09-26T11:43:28.795Z,12.25
2023-09-26T11:46:06.055Z,11.65
2023-09-26T11:48:34.036Z,11.35
2023-09-26T11:51:01.552Z,11.23
2023-09-26T11:53:30.949Z,10.90
2023-09-26T11:55:59.600Z,12.32
2023-09-26T11:58:28.225Z,11.20
2023-09-26T12:00:55.890Z,11.18
2023-09-26T12:03:23.848Z,11.57
2023-09-26T12:05:51.497Z,11.10
2023-09-26T12:08:19.263Z,10.02
2023-09-26T12:10:46.926Z,9.75
2023-09-26T12:13:14.916Z,10.73
2023-09-26T12:15:42.459Z,10.27
2023-09-26T12:18:11.752Z,10.35
2023-09-26T12:20:39.704Z,10.13
2023-09-26T12:23:10.032Z,10.27
2023-09-26T12:25:37.990Z,10.48
2023-09-26T12:28:06.323Z,10.68
2023-09-26T12:30:34.451Z,10.45
2023-09-26T12:33:02.314Z,9.77
2023-09-26T12:35:30.007Z,9.25
2023-09-26T12:37:58.211Z,9.20
2023-09-26T12:40:25.876Z,10.07
2023-09-26T12:42:53.819Z,9.48
2023-09-26T12:45:21.442Z,9.95
2023-09-26T12:47:49.329Z,9.98
2023-09-26T12:50:16.828Z,9.50
2023-09-26T12:52:44.711Z,10.27
2023-09-26T12:55:12.380Z,9.90
2023-09-26T12:57:40.247Z,9.73
2023-09-26T13:00:12.144Z,9.60
2023-09-26T13:02:41.325Z,9.82
2023-09-26T13:05:09.763Z,9.65
2023-09-26T13:07:38.878Z,9.98
2023-09-26T13:10:07.317Z,9.68
2023-09-26T13:12:39.341Z,9.65
2023-09-26T13:15:09.475Z,10.80
2023-09-26T13:17:37.791Z,9.82
2023-09-26T13:20:12.480Z,10.38
2023-09-26T13:22:40.785Z,9.82
2023-09-26T13:25:08.808Z,10.77
2023-09-26T13:27:36.695Z,10.43
2023-09-26T13:30:05.901Z,11.10
2023-09-26T13:32:33.928Z,10.63
2023-09-26T13:35:05.059Z,10.63
2023-09-26T13:37:33.139Z,10.63
2023-09-26T13:40:00.724Z,10.35
2023-09-26T13:42:28.632Z,10.20
2023-09-26T13:44:56.202Z,11.18
2023-09-26T13:47:24.082Z,10.88
2023-09-26T13:49:51.669Z,11.25
2023-09-26T13:52:19.607Z,10.32
2023-09-26T13:54:49.996Z,10.88
2023-09-26T13:57:19.296Z,10.85
2023-09-26T13:59:48.219Z,10.50
2023-09-26T14:02:16.138Z,11.10
2023-09-26T14:04:58.294Z,10.70
2023-09-26T14:07:35.068Z,10.68
2023-09-26T14:10:02.713Z,11.18
2023-09-26T14:12:30.538Z,11.40
2023-09-26T14:14:57.998Z,11.48
2023-09-26T14:17:25.869Z,11.43
2023-09-26T14:19:53.454Z,11.13
2023-09-26T14:22:21.417Z,12.13
2023-09-26T14:24:53.973Z,11.57
2023-09-26T14:27:21.953Z,11.18
2023-09-26T14:29:49.554Z,11.07
2023-09-26T14:32:17.719Z,11.48
2023-09-26T14:34:45.559Z,12.07
2023-09-26T14:37:13.580Z,12.05
2023-09-26T14:39:41.195Z,11.60
2023-09-26T14:42:09.139Z,12.20
2023-09-26T14:44:37.346Z,12.05
2023-09-26T14:47:05.455Z,12.23
2023-09-26T14:49:33.407Z,12.20
2023-09-26T14:52:01.197Z,12.73
2023-09-26T14:54:28.839Z,12.90
2023-09-26T14:56:56.586Z,12.35
2023-09-26T14:59:24.173Z,12.27
2023-09-26T15:01:52.117Z,12.38
2023-09-26T15:04:19.812Z,13.20
2023-09-26T15:06:47.671Z,13.05
2023-09-26T15:09:15.314Z,13.38
2023-09-26T15:11:43.440Z,12.93
2023-09-26T15:14:11.891Z,13.35
2023-09-26T15:16:40.916Z,14.00
2023-09-26T15:19:08.462Z,14.18
2023-09-26T15:21:36.574Z,14.25
2023-09-26T15:24:04.255Z,12.82
2023-09-26T15:26:32.324Z,13.00
2023-09-26T15:28:59.923Z,12.80
2023-09-26T15:31:27.748Z,14.13
2023-09-26T15:33:55.330Z,14.57
2023-09-26T15:36:23.181Z,14.55
2023-09-26T15:38:50.788Z,15.07
2023-09-26T15:41:20.767Z,14.02
2023-09-26T15:43:52.753Z,14.38
2023-09-26T15:46:21.283Z,13.73
2023-09-26T15:48:49.856Z,15.02
2023-09-26T15:51:18.586Z,15.63
2023-09-26T15:53:46.518Z,15.52
2023-09-26T15:56:15.251Z,15.18
2023-09-26T15:58:44.330Z,15.55
2023-09-26T16:01:12.156Z,15.63
2023-09-26T16:03:40.120Z,15.13
2023-09-26T16:06:08.023Z,16.00
2023-09-26T16:08:35.696Z,16.02
2023-09-26T16:11:04.486Z,16.20
2023-09-26T16:13:34.951Z,15.93
2023-09-26T16:16:03.636Z,16.02
2023-09-26T16:18:31.764Z,17.27
2023-09-26T16:20:59.556Z,16.95
2023-09-26T16:23:27.163Z,16.58
2023-09-26T16:25:55.285Z,17.58
2023-09-26T16:28:22.892Z,16.92
2023-09-26T16:30:50.827Z,17.67
2023-09-26T16:33:18.407Z,17.98
2023-09-26T16:35:46.209Z,18.05
2023-09-26T16:38:14.098Z,17.85
2023-09-26T16:40:45.070Z,18.20
2023-09-26T16:43:12.989Z,18.38
2023-09-26T16:45:40.919Z,18.75
2023-09-26T16:48:08.931Z,23.30
2023-09-26T16:50:36.986Z,21.92
2023-09-26T16:53:04.727Z,21.98
2023-09-26T16:55:32.693Z,21.38
2023-09-26T16:58:00.447Z,21.60
2023-09-26T17:00:28.347Z,20.67
2023-09-26T17:02:55.996Z,20.95
2023-09-26T17:05:24.137Z,22.15
2023-09-26T17:07:51.750Z,21.98
2023-09-26T17:10:19.629Z,22.08
2023-09-26T17:12:47.764Z,22.48
2023-09-26T17:15:15.657Z,22.58
2023-09-26T17:17:43.219Z,22.33
2023-09-26T17:20:11.216Z,22.77
2023-09-26T17:22:38.936Z,22.25
2023-09-26T17:25:06.978Z,22.35
2023-09-26T17:27:36.563Z,24.40
2023-09-26T17:30:06.004Z,23.75
2023-09-26T17:32:33.761Z,24.73
2023-09-26T17:35:01.665Z,23.20
2023-09-26T17:37:29.335Z,24.95
2023-09-26T17:39:57.046Z,23.60
2023-09-26T17:42:24.531Z,24.80
2023-09-26T17:44:52.477Z,25.15
2023-09-26T17:47:20.095Z,25.10
2023-09-26T17:49:48.131Z,24.58
2023-09-26T17:52:15.790Z,25.38
2023-09-26T17:54:43.668Z,24.90
2023-09-26T17:57:11.144Z,28.50
2023-09-26T17:59:38.990Z,29.85
2023-09-26T18:02:06.895Z,26.60
2023-09-26T18:04:34.683Z,27.90
2023-09-26T18:07:02.258Z,28.13
2023-09-26T18:09:30.096Z,28.25
2023-09-26T18:11:57.771Z,28.65
2023-09-26T18:14:25.746Z,29.05
2023-09-26T18:16:53.245Z,29.20
2023-09-26T18:19:21.362Z,29.25
2023-09-26T18:21:48.970Z,28.27
2023-09-26T18:24:16.995Z,28.73
2023-09-26T18:26:44.612Z,27.30
2023-09-26T18:29:12.638Z,28.58
2023-09-26T18:31:40.407Z,26.95
2023-09-26T18:34:08.364Z,30.35
2023-09-26T18:36:35.905Z,27.98
2023-09-26T18:39:04.102Z,31.42
2023-09-26T18:41:31.809Z,31.15
2023-09-26T18:43:59.613Z,31.60
2023-09-26T18:46:27.278Z,29.33
2023-09-26T18:48:55.922Z,33.03
2023-09-26T18:51:23.691Z,32.15
2023-09-26T18:53:51.795Z,31.98
2023-09-26T18:56:19.497Z,33.20
2023-09-26T18:58:47.409Z,31.15
2023-09-26T19:01:15.043Z,31.98
2023-09-26T19:03:43.301Z,32.30
2023-09-26T19:06:11.289Z,34.00
2023-09-26T19:08:39.240Z,32.38
2023-09-26T19:11:07.355Z,32.03
2023-09-26T19:13:35.580Z,33.28
2023-09-26T19:16:03.634Z,33.20
2023-09-26T19:18:31.737Z,30.92
2023-09-26T19:20:59.264Z,33.17
2023-09-26T19:23:27.191Z,33.30
2023-09-26T19:25:54.953Z,33.45
2023-09-26T19:28:23.156Z,34.75
2023-09-26T19:30:50.928Z,34.42
2023-09-26T19:33:19.118Z,34.92
2023-09-26T19:35:46.903Z,34.90
2023-09-26T19:38:15.154Z,35.88
2023-09-26T19:40:42.801Z,35.55
2023-09-26T19:43:12.598Z,35.95
2023-09-26T19:45:40.175Z,35.70
2023-09-26T19:48:08.100Z,36.47
2023-09-26T19:50:35.660Z,34.88
2023-09-26T19:53:03.681Z,35.42
2023-09-26T19:55:31.247Z,35.17
2023-09-26T19:57:59.582Z,34.80
2023-09-26T20:00:27.206Z,35.60
2023-09-26T20:02:56.243Z,34.90
2023-09-26T20:05:24.186Z,34.10
2023-09-26T20:07:52.092Z,33.83
2023-09-26T20:10:19.642Z,33.75
2023-09-26T20:12:47.528Z,34.88
2023-09-26T20:15:23.530Z,34.90
2023-09-26T20:17:51.822Z,32.83
2023-09-26T20:20:19.828Z,33.47
2023-09-26T20:22:49.912Z,34.97
2023-09-26T20:25:18.087Z,34.30
2023-09-26T20:27:45.919Z,34.15
2023-09-26T20:30:14.062Z,33.90
2023-09-26T20:32:42.058Z,34.13
2023-09-26T20:35:10.048Z,34.83
2023-09-26T20:37:37.847Z,34.13
2023-09-26T20:40:05.593Z,33.28
2023-09-26T20:42:33.462Z,33.00
2023-09-26T20:45:01.096Z,33.53
2023-09-26T20:47:29.655Z,34.15
2023-09-26T20:49:57.166Z,33.78
2023-09-26T20:52:25.022Z,32.85
2023-09-26T20:54:52.504Z,33.05
2023-09-26T20:57:20.357Z,33.78
2023-09-26T20:59:47.894Z,33.13
2023-09-26T21:02:15.814Z,33.20
2023-09-26T21:04:43.729Z,34.40
2023-09-26T21:07:11.496Z,31.83
2023-09-26T21:09:39.001Z,33.10
2023-09-26T21:12:09.021Z,34.67
2023-09-26T21:14:39.566Z,33.13
2023-09-26T21:17:07.518Z,32.42
2023-09-26T21:19:35.005Z,33.42
2023-09-26T21:22:02.852Z,33.35
2023-09-26T21:24:30.506Z,33.17
2023-09-26T21:26:58.354Z,32.25
2023-09-26T21:29:26.800Z,33.17
2023-09-26T21:31:54.730Z,31.80
2023-09-26T21:34:22.386Z,32.42
2023-09-26T21:36:50.148Z,32.38
2023-09-26T21:39:17.851Z,32.50
2023-09-26T21:41:46.369Z,32.25
2023-09-26T21:44:14.925Z,32.38
2023-09-26T21:46:42.637Z,32.67
2023-09-26T21:49:10.572Z,32.53
2023-09-26T21:51:38.423Z,30.88
2023-09-26T21:54:06.301Z,32.75
2023-09-26T21:56:34.133Z,33.00
2023-09-26T21:59:01.686Z,32.05
2023-09-26T22:01:29.532Z,32.10
2023-09-26T22:03:57.189Z,32.42
2023-09-26T22:06:24.959Z,32.53
2023-09-26T22:08:52.815Z,32.80
2023-09-26T22:11:20.749Z,32.28
2023-09-26T22:13:48.261Z,32.40
2023-09-26T22:16:16.029Z,33.10
2023-09-26T22:18:43.892Z,32.50
2023-09-26T22:21:11.691Z,31.92
2023-09-26T22:23:39.282Z,31.67
2023-09-26T22:26:14.740Z,33.70
2023-09-26T22:28:42.442Z,32.70
2023-09-26T22:31:10.363Z,32.58
2023-09-26T22:33:38.969Z,31.58
2023-09-26T22:36:06.915Z,33.78
2023-09-26T22:38:34.411Z,32.65
2023-09-26T22:41:02.206Z,32.78
2023-09-26T22:43:29.773Z,32.85
2023-09-26T22:46:01.879Z,32.95
2023-09-26T22:48:29.797Z,31.83
2023-09-26T22:50:57.813Z,33.35
2023-09-26T22:53:25.827Z,32.35
2023-09-26T22:55:53.697Z,32.30
2023-09-26T22:58:21.298Z,33.67
2023-09-26T23:00:49.229Z,32.25
2023-09-26T23:03:17.151Z,32.85
2023-09-26T23:05:45.887Z,32.35
2023-09-26T23:08:13.474Z,32.67
2023-09-26T23:10:41.284Z,33.83
2023-09-26T23:13:09.149Z,31.90
2023-09-26T23:15:36.927Z,31.73
2023-09-26T23:18:04.866Z,32.90
2023-09-26T23:20:38.766Z,32.58
2023-09-26T23:23:06.474Z,31.20
2023-09-26T23:25:34.938Z,32.63
2023-09-26T23:28:02.454Z,33.03
2023-09-26T23:30:30.414Z,32.63
2023-09-26T23:32:58.310Z,32.42
2023-09-26T23:35:26.698Z,33.45
2023-09-26T23:37:55.190Z,35.30
2023-09-26T23:40:23.814Z,33.25
2023-09-26T23:42:51.510Z,32.10
2023-09-26T23:45:20.746Z,33.13
2023-09-26T23:47:48.857Z,32.50
2023-09-26T23:50:16.885Z,31.27
2023-09-26T23:52:45.387Z,32.58
2023-09-26T23:55:13.366Z,31.67
2023-09-26T23:57:40.916Z,32.20
